RJSU(METAR)
04/28 17:00
METAR RJSU 280800Z 16011KT 9999 FEW030 14/05 Q1007 RMK 1CU030 A2973=
戻る
トップページへ戻る
IMOC Co,.Ltd.